Time;durP1;ratioP1;P1;durP2;ratioP2;P2;SDS_P1;SDS_P2;PMS_P1;PMS_P2;Temp;Humidity;BMP_temperature;BMP_pressure;BME280_temperature;BME280_humidity;BME280_pressure;Samples;Min_cycle;Max_cycle;Signal;HPM_P1;HPM_P2
2021/08/08 00:00:00;;;;;;;6.00;3.15;;;;;;;15.33;100.00;97304.72;5029138;28;20035;-60
2021/08/08 00:02:26;;;;;;;5.07;2.70;;;;;;;15.51;100.00;97310.47;5028766;28;20415;-60
2021/08/08 00:04:52;;;;;;;5.30;2.60;;;;;;;15.45;100.00;97310.06;5028198;28;20494;-61
2021/08/08 00:07:18;;;;;;;4.25;2.20;;;;;;;15.36;100.00;97308.91;5028937;28;20037;-61
2021/08/08 00:09:45;;;;;;;3.92;2.50;;;;;;;15.40;100.00;97308.59;5027092;28;20529;-62
2021/08/08 00:12:11;;;;;;;7.75;2.70;;;;;;;15.44;100.00;97314.47;5027954;28;20713;-62
2021/08/08 00:14:37;;;;;;;5.78;2.72;;;;;;;15.45;100.00;97310.06;5029725;28;20033;-61
2021/08/08 00:17:04;;;;;;;5.00;2.20;;;;;;;15.42;100.00;97311.97;5027183;28;20119;-63
2021/08/08 00:19:29;;;;;;;5.57;2.10;;;;;;;15.72;100.00;97307.22;5027642;28;20052;-61
2021/08/08 00:21:55;;;;;;;8.10;2.30;;;;;;;15.43;100.00;97318.88;5027452;28;20166;-60
2021/08/08 00:24:20;;;;;;;3.45;2.00;;;;;;;15.56;100.00;97313.56;5029764;28;20450;-61
2021/08/08 00:26:45;;;;;;;3.60;1.80;;;;;;;15.47;100.00;97303.72;5026265;28;20056;-62
2021/08/08 00:29:11;;;;;;;3.60;1.90;;;;;;;15.33;100.00;97307.34;5025580;28;20033;-62
2021/08/08 00:31:36;;;;;;;3.00;1.60;;;;;;;15.50;100.00;97319.28;5026464;28;20456;-61
2021/08/08 00:34:01;;;;;;;5.50;2.25;;;;;;;15.43;100.00;97323.28;5026938;28;20607;-63
2021/08/08 00:36:27;;;;;;;5.57;1.92;;;;;;;15.58;100.00;97321.34;5028367;28;20043;-62
2021/08/08 00:38:54;;;;;;;4.18;1.90;;;;;;;15.52;100.00;97322.63;5026535;28;20035;-63
2021/08/08 00:41:19;;;;;;;4.47;2.13;;;;;;;15.53;100.00;97324.34;5025953;28;20861;-63
2021/08/08 00:43:44;;;;;;;3.55;2.03;;;;;;;15.78;100.00;97327.84;5027621;28;20033;-63
2021/08/08 00:46:10;;;;;;;4.18;1.80;;;;;;;15.91;100.00;97328.59;5026576;28;20041;-62
2021/08/08 00:48:35;;;;;;;4.60;1.77;;;;;;;16.11;100.00;97323.69;5028493;28;20024;-61
2021/08/08 00:51:01;;;;;;;3.90;1.70;;;;;;;15.94;100.00;97317.88;5026459;28;20805;-62
2021/08/08 00:53:27;;;;;;;4.00;1.90;;;;;;;16.19;100.00;97321.28;5028582;28;20688;-62
2021/08/08 00:55:53;;;;;;;5.20;1.92;;;;;;;15.98;100.00;97323.75;5024452;28;20060;-62
2021/08/08 00:58:19;;;;;;;5.30;1.80;;;;;;;16.00;100.00;97321.84;5026852;28;20116;-61
2021/08/08 01:00:46;;;;;;;2.88;1.88;;;;;;;15.60;100.00;97320.31;5024606;28;20045;-62
2021/08/08 01:03:14;;;;;;;6.43;1.73;;;;;;;15.95;100.00;97330.09;5024124;28;20031;-61
2021/08/08 01:05:50;;;;;;;4.82;1.80;;;;;;;15.80;100.00;97331.19;5028125;28;20029;-61
2021/08/08 01:08:23;;;;;;;5.97;1.85;;;;;;;15.97;100.00;97328.19;5027728;28;20025;-63
2021/08/08 01:10:49;;;;;;;2.63;1.60;;;;;;;16.19;100.00;97316.91;5027430;28;20045;-62
2021/08/08 01:13:15;;;;;;;2.15;1.40;;;;;;;16.32;100.00;97322.09;5025422;28;20032;-60
2021/08/08 01:15:42;;;;;;;3.92;1.48;;;;;;;15.94;100.00;97317.88;5028081;28;20029;-63
2021/08/08 01:18:12;;;;;;;4.57;1.52;;;;;;;15.87;100.00;97308.75;5027216;28;20515;-60
2021/08/08 01:20:40;;;;;;;10.32;1.88;;;;;;;16.09;100.00;97310.63;5024826;28;20079;-60
2021/08/08 01:23:08;;;;;;;5.32;1.60;;;;;;;15.90;100.00;97313.78;5026308;28;20477;-60
2021/08/08 01:25:34;;;;;;;4.45;1.50;;;;;;;16.13;100.00;97312.06;5026733;28;20030;-61
2021/08/08 01:28:01;;;;;;;4.38;1.52;;;;;;;16.02;100.00;97322.56;5026272;28;20039;-61
2021/08/08 01:30:27;;;;;;;5.95;1.60;;;;;;;15.79;100.00;97330.34;5027024;28;20037;-61
2021/08/08 01:33:01;;;;;;;7.78;1.67;;;;;;;16.00;100.00;97333.19;5026196;28;20026;-60
2021/08/08 01:35:26;;;;;;;7.88;1.80;;;;;;;15.66;100.00;97331.31;5028330;28;20446;-59
2021/08/08 01:37:52;;;;;;;2.72;1.30;;;;;;;15.94;100.00;97328.38;5025816;28;20491;-63
2021/08/08 01:40:22;;;;;;;4.32;1.70;;;;;;;16.02;100.00;97329.63;5046120;28;20025;-62
2021/08/08 01:42:52;;;;;;;2.30;1.20;;;;;;;15.99;100.00;97328.06;5029659;28;20806;-61
2021/08/08 01:45:19;;;;;;;4.75;1.70;;;;;;;15.78;100.00;97328.66;5032346;28;20025;-61
2021/08/08 01:47:51;;;;;;;5.63;1.88;;;;;;;15.80;100.00;97337.28;5029311;28;20048;-60
2021/08/08 01:50:17;;;;;;;2.95;1.80;;;;;;;15.72;100.00;97328.25;5030631;28;20810;-60
2021/08/08 01:52:43;;;;;;;2.28;1.48;;;;;;;15.66;100.00;97331.31;5031375;28;20032;-63
2021/08/08 01:55:10;;;;;;;5.20;1.65;;;;;;;15.52;100.00;97330.53;5025939;28;20060;-61
2021/08/08 01:57:35;;;;;;;4.82;1.60;;;;;;;15.58;100.00;97332.69;5030125;28;20037;-62
2021/08/08 02:00:04;;;;;;;2.65;1.60;;;;;;;15.49;100.00;97338.63;5030097;28;20021;-62
2021/08/08 02:02:29;;;;;;;4.25;1.83;;;;;;;15.52;100.00;97341.03;5029414;28;20188;-60
2021/08/08 02:04:55;;;;;;;3.85;1.38;;;;;;;15.58;100.00;97342.38;5031724;28;20119;-62
2021/08/08 02:07:21;;;;;;;3.47;1.40;;;;;;;15.39;100.00;97342.88;5026755;28;20037;-62
2021/08/08 02:09:47;;;;;;;6.15;1.98;;;;;;;15.06;100.00;97344.28;5030089;28;20052;-63
2021/08/08 02:12:12;;;;;;;3.60;1.85;;;;;;;15.27;100.00;97354.22;5029510;28;20164;-62
2021/08/08 02:14:38;;;;;;;4.75;1.63;;;;;;;15.57;100.00;97348.59;5029872;28;20082;-62
2021/08/08 02:17:04;;;;;;;2.80;1.52;;;;;;;15.69;100.00;97357.38;5029146;28;20103;-61
2021/08/08 02:19:30;;;;;;;5.32;1.42;;;;;;;15.34;100.00;97356.31;5028709;28;20083;-60
2021/08/08 02:21:56;;;;;;;3.67;1.50;;;;;;;15.46;100.00;97359.88;5028064;28;20630;-60
2021/08/08 02:24:22;;;;;;;4.38;1.60;;;;;;;15.61;100.00;97365.84;5033409;28;20033;-62
2021/08/08 02:26:48;;;;;;;5.43;2.08;;;;;;;15.20;100.00;97375.69;5028784;28;20041;-61
2021/08/08 02:29:13;;;;;;;6.13;1.60;;;;;;;15.38;100.00;97380.59;5028066;28;20037;-62
2021/08/08 02:31:41;;;;;;;3.40;1.60;;;;;;;15.43;100.00;97379.31;5029632;28;20037;-60
2021/08/08 02:34:09;;;;;;;5.90;1.67;;;;;;;15.35;100.00;97383.44;5030250;28;20116;-61
2021/08/08 02:36:35;;;;;;;3.60;1.65;;;;;;;15.47;100.00;97387.00;5027756;28;20677;-61
2021/08/08 02:39:01;;;;;;;4.13;1.52;;;;;;;15.50;100.00;97377.09;5028446;28;20021;-61
2021/08/08 02:41:26;;;;;;;4.97;1.50;;;;;;;15.51;100.00;97389.31;5028411;28;20092;-61
2021/08/08 02:43:56;;;;;;;7.57;1.67;;;;;;;15.26;100.00;97394.59;5027482;28;20490;-63
2021/08/08 02:46:22;;;;;;;5.32;1.58;;;;;;;15.37;100.00;97407.84;5029170;28;20152;-64
2021/08/08 02:48:48;;;;;;;3.85;1.45;;;;;;;15.68;100.00;97392.50;5029627;28;20205;-60
2021/08/08 02:51:15;;;;;;;2.55;1.60;;;;;;;15.36;100.00;97398.25;5024635;28;20055;-60
2021/08/08 02:53:41;;;;;;;8.07;1.75;;;;;;;15.33;100.00;97398.47;5030374;28;20132;-64
2021/08/08 02:56:06;;;;;;;3.42;1.60;;;;;;;15.65;100.00;97403.25;5030538;28;20041;-61
2021/08/08 02:58:31;;;;;;;3.80;1.85;;;;;;;15.42;100.00;97396.03;5030113;28;20061;-64
2021/08/08 03:00:57;;;;;;;3.80;1.70;;;;;;;15.63;100.00;97397.28;5028835;28;20406;-61
2021/08/08 03:03:22;;;;;;;5.20;1.73;;;;;;;15.48;100.00;97410.53;5028582;28;20089;-61
2021/08/08 03:05:48;;;;;;;7.85;1.40;;;;;;;15.61;100.00;97413.16;5028903;28;20045;-65
2021/08/08 03:08:13;;;;;;;2.65;1.52;;;;;;;15.56;100.00;97418.72;5030354;28;20826;-61
2021/08/08 03:10:38;;;;;;;7.32;1.60;;;;;;;15.60;100.00;97409.69;5027340;28;20044;-61
2021/08/08 03:13:04;;;;;;;4.28;1.50;;;;;;;16.04;100.00;97415.34;5027872;28;20030;-63
2021/08/08 03:15:29;;;;;;;4.43;1.40;;;;;;;15.66;100.00;97410.19;5027014;28;20029;-61
2021/08/08 03:17:55;;;;;;;6.65;1.60;;;;;;;15.45;100.00;97418.63;5028120;28;20029;-61
2021/08/08 03:20:20;;;;;;;7.93;1.73;;;;;;;15.78;100.00;97417.22;5027956;28;20086;-63
2021/08/08 03:22:47;;;;;;;2.58;1.35;;;;;;;15.82;100.00;97423.09;5028660;28;20058;-60
2021/08/08 03:25:12;;;;;;;3.63;1.50;;;;;;;15.66;100.00;97439.09;5028928;28;20033;-61
2021/08/08 03:27:38;;;;;;;2.08;1.30;;;;;;;15.89;100.00;97433.06;5026755;28;20030;-62
2021/08/08 03:30:06;;;;;;;4.72;1.67;;;;;;;15.43;100.00;97438.94;5029813;28;20025;-63
2021/08/08 03:32:32;;;;;;;4.88;1.50;;;;;;;15.70;100.00;97430.06;5029658;28;20458;-61
2021/08/08 03:34:57;;;;;;;5.28;1.63;;;;;;;15.59;100.00;97439.53;5028859;28;20105;-61
2021/08/08 03:37:23;;;;;;;3.50;1.80;;;;;;;15.26;100.00;97444.53;5028278;28;20048;-63
2021/08/08 03:39:48;;;;;;;2.47;1.38;;;;;;;15.90;100.00;97450.53;5028608;28;20675;-62
2021/08/08 03:42:13;;;;;;;4.07;1.70;;;;;;;15.29;100.00;97462.69;5028457;28;20041;-63
2021/08/08 03:44:39;;;;;;;5.65;1.90;;;;;;;15.34;100.00;97464.03;5025986;28;20144;-61
2021/08/08 03:47:04;;;;;;;2.80;1.77;;;;;;;15.42;100.00;97469.63;5027241;28;20060;-61
2021/08/08 03:49:29;;;;;;;3.63;1.60;;;;;;;15.55;100.00;97474.00;5030104;28;20032;-61
2021/08/08 03:51:55;;;;;;;8.95;1.90;;;;;;;15.44;100.00;97474.78;5026454;28;20193;-61
2021/08/08 03:54:20;;;;;;;2.40;1.60;;;;;;;15.85;100.00;97481.59;5027368;28;20025;-61
2021/08/08 03:56:45;;;;;;;4.68;1.90;;;;;;;15.48;100.00;97473.63;5028823;28;20029;-62
2021/08/08 03:59:11;;;;;;;7.80;1.95;;;;;;;15.51;100.00;97483.94;5028425;28;20063;-62
2021/08/08 04:01:36;;;;;;;3.67;1.40;;;;;;;15.60;100.00;97482.41;5027700;28;20033;-64
2021/08/08 04:04:02;;;;;;;3.92;1.70;;;;;;;15.12;100.00;97496.19;5028841;28;20053;-61
2021/08/08 04:06:28;;;;;;;4.28;1.60;;;;;;;15.46;100.00;97477.28;5026016;28;20124;-60
2021/08/08 04:08:53;;;;;;;5.00;1.50;;;;;;;15.57;100.00;97488.75;5028935;28;21041;-60
2021/08/08 04:11:18;;;;;;;4.13;1.50;;;;;;;15.58;99.82;97486.94;5027311;28;20773;-60
2021/08/08 04:13:44;;;;;;;3.67;1.60;;;;;;;15.38;100.00;97485.69;5028579;28;20044;-62
2021/08/08 04:16:09;;;;;;;2.83;1.52;;;;;;;15.28;100.00;97487.28;5025631;28;20037;-61
2021/08/08 04:18:35;;;;;;;2.95;1.73;;;;;;;15.27;100.00;97496.09;5027337;28;20111;-63
2021/08/08 04:21:01;;;;;;;3.50;1.60;;;;;;;15.58;100.00;97506.19;5024803;28;20695;-62
2021/08/08 04:23:26;;;;;;;4.05;1.80;;;;;;;15.78;98.79;97507.47;5027463;28;20109;-63
2021/08/08 04:25:52;;;;;;;3.53;1.80;;;;;;;15.32;100.00;97499.25;5027774;28;20670;-62
2021/08/08 04:28:17;;;;;;;3.63;1.63;;;;;;;15.53;100.00;97503.06;5029353;28;20025;-61
2021/08/08 04:30:43;;;;;;;6.65;1.70;;;;;;;15.59;100.00;97507.03;5027195;28;20083;-63
2021/08/08 04:33:08;;;;;;;4.90;1.55;;;;;;;15.66;100.00;97507.44;5027856;28;20204;-62
2021/08/08 04:35:34;;;;;;;8.02;1.83;;;;;;;15.60;99.10;97519.22;5026110;28;20037;-60
2021/08/08 04:38:01;;;;;;;3.35;1.42;;;;;;;15.66;99.69;97524.09;5026025;28;20090;-61
2021/08/08 04:40:26;;;;;;;3.20;1.70;;;;;;;15.77;98.14;97520.75;5026859;28;20041;-63
2021/08/08 04:42:52;;;;;;;8.88;2.10;;;;;;;15.56;100.00;97528.28;5026207;28;20062;-61
2021/08/08 04:45:19;;;;;;;7.72;1.88;;;;;;;15.67;100.00;97535.44;5026088;28;20057;-62
2021/08/08 04:47:45;;;;;;;5.70;1.75;;;;;;;16.11;98.86;97539.41;5030311;28;20031;-62
2021/08/08 04:50:11;;;;;;;4.32;2.00;;;;;;;16.02;99.72;97534.78;5027440;28;20029;-62
2021/08/08 04:52:37;;;;;;;6.65;1.85;;;;;;;15.85;96.45;97534.19;5026918;28;20025;-61
2021/08/08 04:55:04;;;;;;;3.53;1.80;;;;;;;15.92;97.21;97537.22;5027291;28;20124;-64
2021/08/08 04:57:29;;;;;;;3.55;1.70;;;;;;;16.25;95.68;97536.63;5028165;28;20037;-61
2021/08/08 04:59:54;;;;;;;4.50;2.13;;;;;;;16.69;93.23;97524.66;5027735;28;20051;-60
2021/08/08 05:02:20;;;;;;;5.78;1.77;;;;;;;16.47;93.64;97533.28;5026779;28;20136;-60
2021/08/08 05:04:46;;;;;;;6.78;1.40;;;;;;;16.64;93.61;97532.06;5026873;28;20043;-66
2021/08/08 05:07:11;;;;;;;6.43;1.63;;;;;;;16.74;93.67;97540.97;5025523;28;20033;-65
2021/08/08 05:09:37;;;;;;;7.15;1.60;;;;;;;16.40;93.42;97545.22;5025485;28;20025;-62
2021/08/08 05:12:02;;;;;;;3.25;1.50;;;;;;;16.41;95.06;97546.03;5023875;28;20459;-63
2021/08/08 05:14:29;;;;;;;4.40;1.40;;;;;;;16.05;96.63;97550.38;5026288;28;20032;-61
2021/08/08 05:16:54;;;;;;;3.33;1.52;;;;;;;16.59;93.42;97544.72;5024855;28;20044;-61
2021/08/08 05:19:19;;;;;;;6.68;1.77;;;;;;;16.65;92.89;97549.56;5026152;28;20047;-60
2021/08/08 05:21:45;;;;;;;5.32;1.42;;;;;;;16.75;93.57;97555.81;5027923;28;20049;-63
2021/08/08 05:24:10;;;;;;;5.30;1.58;;;;;;;17.04;92.36;97549.34;5025342;28;20025;-63
2021/08/08 05:26:35;;;;;;;3.45;1.40;;;;;;;17.58;90.08;97554.06;5028320;28;20044;-63
2021/08/08 05:29:01;;;;;;;2.75;1.48;;;;;;;17.29;90.78;97561.56;5027081;28;20030;-61
2021/08/08 05:31:26;;;;;;;4.60;1.40;;;;;;;17.02;91.38;97557.41;5024222;28;20041;-60
2021/08/08 05:33:51;;;;;;;3.50;1.40;;;;;;;16.84;91.69;97564.88;5027676;28;20975;-61
2021/08/08 05:36:17;;;;;;;5.63;1.40;;;;;;;17.06;91.25;97563.28;5024730;28;20039;-61
2021/08/08 05:38:42;;;;;;;6.50;1.50;;;;;;;17.29;89.15;97570.28;5026454;28;20364;-62
2021/08/08 05:41:07;;;;;;;4.25;1.60;;;;;;;17.51;89.22;97568.66;5027360;28;20060;-61
2021/08/08 05:43:32;;;;;;;3.30;1.60;;;;;;;17.52;88.13;97571.19;5024812;28;20091;-61
2021/08/08 05:45:58;;;;;;;3.45;1.60;;;;;;;17.68;86.80;97573.50;5024720;28;20052;-63
2021/08/08 05:48:23;;;;;;;2.83;1.40;;;;;;;17.41;88.44;97575.63;5025692;28;20132;-65
2021/08/08 05:50:48;;;;;;;4.07;1.50;;;;;;;17.84;87.13;97578.41;5024866;28;20442;-64
2021/08/08 05:53:14;;;;;;;3.25;1.52;;;;;;;18.98;82.42;97572.06;5026135;28;20492;-64
2021/08/08 05:55:46;;;;;;;4.28;1.40;;;;;;;20.87;72.12;97568.28;5025134;28;20041;-63
2021/08/08 05:58:11;;;;;;;;;;;;;;;24.12;65.47;97578.81;5025898;28;20052;-64
2021/08/08 06:00:37;;;;;;;4.45;1.70;;;;;;;21.61;70.52;97582.81;5025657;28;19925;-63
2021/08/08 06:03:07;;;;;;;4.50;1.73;;;;;;;22.02;66.37;97587.84;5026912;28;20112;-60
2021/08/08 06:05:32;;;;;;;2.53;1.20;;;;;;;22.11;65.73;97582.53;5026804;28;20037;-62
2021/08/08 06:07:58;;;;;;;5.10;1.20;;;;;;;22.63;63.94;97583.84;5027765;28;20020;-62
2021/08/08 06:10:23;;;;;;;4.15;1.20;;;;;;;22.96;63.52;97574.38;5027746;28;20040;-60
2021/08/08 06:12:49;;;;;;;4.70;1.23;;;;;;;22.95;61.42;97577.19;5028166;28;20603;-60
2021/08/08 06:15:14;;;;;;;7.22;1.98;;;;;;;22.60;63.47;97584.16;5026111;28;20686;-62
2021/08/08 06:17:39;;;;;;;3.97;1.60;;;;;;;23.55;60.84;97585.41;5024661;28;20099;-60
2021/08/08 06:20:05;;;;;;;7.20;1.60;;;;;;;26.88;53.15;97577.25;5024808;28;20071;-61
2021/08/08 06:22:31;;;;;;;4.00;1.42;;;;;;;25.51;53.99;97579.19;5028319;28;20025;-62
2021/08/08 06:24:56;;;;;;;2.67;1.20;;;;;;;25.02;55.80;97585.28;5025428;28;20047;-61
2021/08/08 06:27:21;;;;;;;5.80;2.03;;;;;;;26.06;53.20;97577.59;5027419;28;20396;-60
2021/08/08 06:29:47;;;;;;;3.25;1.35;;;;;;;26.44;52.03;97583.13;5027971;28;20407;-60
2021/08/08 06:32:12;;;;;;;3.65;1.30;;;;;;;25.74;53.35;97591.84;5029247;28;20042;-61
2021/08/08 06:34:37;;;;;;;4.75;1.30;;;;;;;25.67;53.23;97593.50;5029735;28;20108;-62
2021/08/08 06:37:03;;;;;;;4.43;1.23;;;;;;;24.79;55.91;97601.09;5030588;28;20522;-61
2021/08/08 06:39:28;;;;;;;3.28;1.20;;;;;;;24.97;54.48;97597.44;5028088;28;20555;-61
2021/08/08 06:41:53;;;;;;;2.88;1.27;;;;;;;24.66;56.13;97600.69;5026771;28;20037;-61
2021/08/08 06:44:19;;;;;;;7.30;1.10;;;;;;;25.07;54.86;97592.81;5028274;28;20034;-60
2021/08/08 06:46:44;;;;;;;2.28;1.30;;;;;;;24.61;55.45;97597.66;5030112;28;20645;-60
2021/08/08 06:49:09;;;;;;;4.40;1.35;;;;;;;27.03;50.20;97590.72;5025733;28;20132;-60
2021/08/08 06:51:35;;;;;;;4.63;1.23;;;;;;;26.22;51.42;97584.72;5030853;28;20155;-60
2021/08/08 06:54:00;;;;;;;4.28;1.10;;;;;;;26.91;49.67;97592.97;5027102;28;20141;-62
2021/08/08 06:56:25;;;;;;;4.65;1.10;;;;;;;25.76;52.65;97600.50;5029032;28;20069;-60
2021/08/08 06:58:50;;;;;;;5.63;1.20;;;;;;;23.91;56.88;97601.31;5027057;28;20112;-60
2021/08/08 07:01:19;;;;;;;3.22;1.20;;;;;;;25.08;52.92;97599.78;5041187;28;20045;-60
2021/08/08 07:03:44;;;;;;;2.63;1.15;;;;;;;26.44;50.43;97595.69;5027731;28;20519;-62
2021/08/08 07:06:10;;;;;;;4.07;1.20;;;;;;;27.24;49.36;97602.59;5027922;28;20040;-60
2021/08/08 07:08:35;;;;;;;2.17;1.10;;;;;;;28.73;47.64;97608.22;5028412;28;20033;-61
2021/08/08 07:11:00;;;;;;;4.88;1.40;;;;;;;29.09;46.43;97615.44;5028773;28;20338;-61
2021/08/08 07:13:25;;;;;;;4.15;1.10;;;;;;;29.56;44.49;97614.09;5029199;28;20028;-60
2021/08/08 07:15:51;;;;;;;1.77;1.00;;;;;;;25.73;51.76;97619.53;5027189;28;20408;-62
2021/08/08 07:18:16;;;;;;;5.50;1.20;;;;;;;25.09;52.99;97622.81;5025921;28;20364;-61
2021/08/08 07:20:41;;;;;;;4.70;1.40;;;;;;;25.27;53.75;97630.69;5027218;28;20052;-60
2021/08/08 07:23:07;;;;;;;3.35;1.20;;;;;;;25.52;52.82;97625.41;5029841;28;20101;-61
2021/08/08 07:25:32;;;;;;;5.60;1.05;;;;;;;24.98;53.45;97626.63;5027885;28;20080;-60
2021/08/08 07:27:57;;;;;;;2.08;1.10;;;;;;;24.56;55.41;97637.34;5032035;28;20029;-63
2021/08/08 07:30:23;;;;;;;3.80;1.40;;;;;;;22.24;59.42;97624.69;5027433;28;20781;-62
2021/08/08 07:32:48;;;;;;;2.92;1.30;;;;;;;24.60;54.11;97628.00;5027842;28;20428;-61
2021/08/08 07:35:13;;;;;;;2.03;1.20;;;;;;;25.04;52.19;97630.47;5028088;28;20041;-62
2021/08/08 07:37:39;;;;;;;2.72;1.30;;;;;;;24.22;54.76;97630.13;5026197;28;20060;-61
2021/08/08 07:40:05;;;;;;;6.20;1.20;;;;;;;24.55;53.57;97622.31;5027225;28;20045;-61
2021/08/08 07:42:30;;;;;;;1.92;1.10;;;;;;;24.32;54.07;97614.88;5029422;28;20039;-61
2021/08/08 07:44:55;;;;;;;5.20;1.52;;;;;;;25.92;51.95;97608.53;5026577;28;20040;-61
2021/08/08 07:47:21;;;;;;;4.47;1.40;;;;;;;26.70;49.24;97616.81;5028241;28;20045;-61
2021/08/08 07:49:46;;;;;;;2.22;1.10;;;;;;;27.08;47.91;97616.97;5029075;28;20040;-62
2021/08/08 07:52:12;;;;;;;3.38;1.20;;;;;;;28.52;45.23;97617.84;5026635;28;20128;-60
2021/08/08 07:54:37;;;;;;;4.55;1.30;;;;;;;26.95;47.39;97614.84;5028500;28;20051;-62
2021/08/08 07:57:03;;;;;;;3.75;1.40;;;;;;;27.49;47.20;97620.19;5028854;28;20102;-60
2021/08/08 07:59:29;;;;;;;3.08;1.13;;;;;;;27.46;47.64;97623.25;5027862;28;20035;-61
2021/08/08 08:01:54;;;;;;;6.55;1.42;;;;;;;27.68;45.57;97626.06;5026099;28;21016;-62
2021/08/08 08:04:20;;;;;;;5.13;1.45;;;;;;;27.38;45.78;97627.81;5030984;28;20067;-61
2021/08/08 08:06:46;;;;;;;3.53;1.10;;;;;;;28.17;45.48;97635.53;5027892;28;20510;-62
2021/08/08 08:09:11;;;;;;;2.40;1.17;;;;;;;29.65;42.67;97618.31;5029070;28;20033;-61
2021/08/08 08:11:41;;;;;;;3.35;1.40;;;;;;;25.76;48.99;97629.88;5028947;28;20043;-60
2021/08/08 08:14:06;;;;;;;3.38;1.30;;;;;;;25.25;52.22;97637.22;5028793;28;20091;-62
2021/08/08 08:16:32;;;;;;;2.28;1.20;;;;;;;26.11;48.93;97633.22;5026992;28;20040;-62
2021/08/08 08:18:57;;;;;;;2.65;1.20;;;;;;;26.70;48.07;97628.34;5029305;28;20025;-61
2021/08/08 08:21:23;;;;;;;5.47;1.90;;;;;;;27.41;47.25;97624.78;5029348;28;20041;-60
2021/08/08 08:23:48;;;;;;;3.13;1.42;;;;;;;26.89;47.25;97626.25;5027974;28;20036;-61
2021/08/08 08:26:13;;;;;;;2.70;1.20;;;;;;;28.34;44.79;97630.81;5027913;28;20156;-60
2021/08/08 08:28:38;;;;;;;6.25;1.25;;;;;;;28.45;43.18;97633.00;5029010;28;20032;-61
2021/08/08 08:31:04;;;;;;;2.47;1.10;;;;;;;26.73;45.93;97628.00;5027566;28;20033;-61
2021/08/08 08:33:29;;;;;;;4.68;1.30;;;;;;;27.82;44.75;97638.66;5027412;28;20029;-63
2021/08/08 08:35:55;;;;;;;4.22;1.20;;;;;;;27.02;47.48;97628.34;5027089;28;20033;-61
2021/08/08 08:38:20;;;;;;;5.43;1.38;;;;;;;27.74;45.77;97636.06;5028967;28;20057;-61
2021/08/08 08:40:47;;;;;;;5.38;1.33;;;;;;;28.28;44.63;97637.75;5027771;28;20048;-61
2021/08/08 08:43:14;;;;;;;3.13;1.35;;;;;;;27.69;44.64;97636.59;5028081;28;20033;-60
2021/08/08 08:45:42;;;;;;;2.95;1.33;;;;;;;27.67;43.82;97640.47;5027881;28;20135;-62
2021/08/08 08:48:09;;;;;;;4.50;2.38;;;;;;;27.66;42.89;97630.78;5028927;28;20056;-61
2021/08/08 08:50:35;;;;;;;5.68;2.67;;;;;;;27.02;44.14;97631.03;5026410;28;20033;-60
2021/08/08 08:53:02;;;;;;;2.25;1.20;;;;;;;28.55;43.64;97633.59;5028633;28;20032;-61
2021/08/08 08:55:27;;;;;;;2.83;1.33;;;;;;;28.56;41.87;97629.94;5027034;28;20484;-60
2021/08/08 08:57:53;;;;;;;3.42;1.20;;;;;;;27.76;41.43;97623.31;5027084;28;20028;-61
2021/08/08 09:00:18;;;;;;;3.03;1.17;;;;;;;29.39;40.19;97619.72;5029198;28;20035;-60
2021/08/08 09:02:44;;;;;;;2.92;1.20;;;;;;;30.11;39.82;97625.91;5028764;28;20035;-60
2021/08/08 09:05:09;;;;;;;3.88;1.10;;;;;;;28.04;40.55;97630.78;5027815;28;20031;-62
2021/08/08 09:07:36;;;;;;;2.10;1.10;;;;;;;28.43;39.89;97635.06;5026156;28;20020;-62
2021/08/08 09:10:02;;;;;;;3.25;1.90;;;;;;;28.31;39.45;97631.19;5023465;28;20112;-62
2021/08/08 09:12:29;;;;;;;3.92;1.50;;;;;;;28.69;39.35;97631.09;5024920;28;20140;-63
2021/08/08 09:15:01;;;;;;;4.57;1.30;;;;;;;29.42;39.42;97630.06;5025816;28;20115;-62
2021/08/08 09:17:27;;;;;;;3.05;1.40;;;;;;;29.06;39.60;97629.25;5025467;28;20112;-62
2021/08/08 09:20:01;;;;;;;3.53;1.50;;;;;;;29.73;38.25;97620.84;5026503;28;20074;-61
2021/08/08 09:22:28;;;;;;;2.90;1.40;;;;;;;28.87;40.07;97628.84;5025865;28;20063;-60
2021/08/08 09:24:53;;;;;;;2.75;1.30;;;;;;;29.33;41.21;97628.53;5025070;28;20071;-62
2021/08/08 09:27:21;;;;;;;3.80;1.20;;;;;;;29.57;38.73;97627.34;5024955;28;20045;-62
2021/08/08 09:29:48;;;;;;;4.15;1.13;;;;;;;29.68;37.50;97627.81;5026702;28;20021;-62
2021/08/08 09:32:14;;;;;;;2.67;1.20;;;;;;;30.42;36.36;97624.69;5025509;28;20071;-62
2021/08/08 09:34:42;;;;;;;2.80;1.10;;;;;;;29.66;37.50;97628.00;5024157;28;20037;-63
2021/08/08 09:37:22;;;;;;;3.15;1.30;;;;;;;29.16;38.11;97622.59;5026667;28;20025;-61
2021/08/08 09:39:53;;;;;;;3.55;1.30;;;;;;;28.66;38.51;97629.63;5023572;28;20033;-61
2021/08/08 09:42:24;;;;;;;;;;;;;;;29.66;38.35;97630.69;5025718;28;20183;-61
2021/08/08 09:44:54;;;;;;;2.78;1.35;;;;;;;30.43;36.37;97628.19;5040991;28;19997;-61
2021/08/08 09:47:21;;;;;;;2.63;1.10;;;;;;;29.21;38.20;97638.13;5025473;28;20048;-62
2021/08/08 09:49:54;;;;;;;2.20;1.10;;;;;;;27.86;40.36;97633.78;5028713;28;20613;-62
2021/08/08 09:52:21;;;;;;;3.00;1.20;;;;;;;26.64;42.56;97639.75;5026717;28;20037;-62
2021/08/08 09:54:46;;;;;;;3.72;1.23;;;;;;;27.67;42.25;97643.16;5024961;28;20044;-63
2021/08/08 09:57:12;;;;;;;3.45;1.20;;;;;;;26.27;43.50;97653.72;5024623;28;20034;-63
2021/08/08 09:59:46;;;;;;;2.08;1.20;;;;;;;28.03;40.46;97651.41;5026012;28;20049;-60
2021/08/08 10:02:16;;;;;;;4.05;1.10;;;;;;;29.09;38.86;97645.81;5031307;28;20061;-61
2021/08/08 10:04:41;;;;;;;2.53;1.25;;;;;;;26.83;42.38;97648.38;5032468;28;20030;-62
2021/08/08 10:07:07;;;;;;;3.88;1.27;;;;;;;27.53;43.45;97644.75;5028316;28;20103;-61
2021/08/08 10:09:32;;;;;;;4.00;1.20;;;;;;;26.20;44.18;97650.91;5031048;28;20025;-60
2021/08/08 10:12:11;;;;;;;3.13;1.90;;;;;;;26.08;45.25;97654.91;5028720;28;20029;-60
2021/08/08 10:14:36;;;;;;;2.47;1.40;;;;;;;27.54;39.62;97640.25;5030791;28;20068;-62
2021/08/08 10:17:02;;;;;;;2.50;1.30;;;;;;;27.84;41.07;97646.53;5030670;28;20041;-59
2021/08/08 10:19:28;;;;;;;4.20;1.40;;;;;;;28.71;39.27;97645.16;5028993;28;20033;-62
2021/08/08 10:21:53;;;;;;;3.63;1.40;;;;;;;29.11;39.87;97640.25;5028479;28;20042;-61
2021/08/08 10:24:22;;;;;;;2.25;1.20;;;;;;;28.33;39.41;97639.88;5031527;28;20029;-62
2021/08/08 10:26:48;;;;;;;4.78;1.20;;;;;;;28.83;38.57;97646.34;5028347;28;20041;-61
2021/08/08 10:29:13;;;;;;;4.35;1.20;;;;;;;27.50;39.29;97635.25;5026598;28;20024;-63
2021/08/08 10:31:39;;;;;;;4.10;1.40;;;;;;;27.34;40.61;97639.91;5027664;28;20041;-62
2021/08/08 10:34:05;;;;;;;3.50;1.23;;;;;;;28.48;39.01;97638.03;5027564;28;20552;-62
2021/08/08 10:36:32;;;;;;;3.17;1.10;;;;;;;27.35;40.41;97641.56;5030576;28;20037;-62
2021/08/08 10:39:11;;;;;;;2.10;1.10;;;;;;;26.87;42.69;97636.28;5032416;28;20033;-61
2021/08/08 10:41:38;;;;;;;2.92;1.30;;;;;;;27.32;40.91;97642.75;5027482;28;20179;-61
2021/08/08 10:44:09;;;;;;;3.25;1.30;;;;;;;27.81;42.20;97646.88;5030221;28;20053;-64
2021/08/08 10:46:49;;;;;;;2.55;1.20;;;;;;;27.53;42.72;97641.25;5028027;28;20040;-62
2021/08/08 10:49:26;;;;;;;3.47;1.30;;;;;;;26.40;43.58;97642.50;5028059;28;20036;-61
2021/08/08 10:52:02;;;;;;;3.72;1.48;;;;;;;25.71;45.10;97640.22;5024215;28;20539;-61
2021/08/08 10:54:42;;;;;;;4.07;1.40;;;;;;;26.75;43.49;97629.69;5027482;28;20057;-62
2021/08/08 10:57:12;;;;;;;4.25;1.30;;;;;;;26.10;44.48;97637.72;5026774;28;20108;-61
2021/08/08 10:59:49;;;;;;;3.60;1.17;;;;;;;26.00;43.91;97646.94;5030845;28;20030;-61
2021/08/08 11:02:23;;;;;;;4.18;1.30;;;;;;;26.88;41.39;97640.66;5029755;28;20055;-61
2021/08/08 11:04:48;;;;;;;2.08;1.20;;;;;;;27.76;40.79;97644.75;5029553;28;20025;-61
2021/08/08 11:07:14;;;;;;;5.20;1.30;;;;;;;27.29;41.31;97638.59;5029899;28;20040;-61
2021/08/08 11:09:40;;;;;;;2.28;1.40;;;;;;;26.97;41.80;97636.91;5026385;28;20092;-63
2021/08/08 11:12:06;;;;;;;4.75;1.65;;;;;;;25.64;45.49;97632.06;5027979;28;20257;-60
2021/08/08 11:14:32;;;;;;;2.88;1.20;;;;;;;25.76;44.63;97629.88;5036172;28;20029;-60
2021/08/08 11:17:04;;;;;;;3.05;1.50;;;;;;;25.46;44.68;97626.91;5029375;28;20041;-60
2021/08/08 11:19:35;;;;;;;4.93;1.38;;;;;;;25.32;45.55;97628.38;5028667;28;20648;-61
2021/08/08 11:22:11;;;;;;;4.35;1.70;;;;;;;26.19;45.11;97619.81;5029428;28;20204;-61
2021/08/08 11:24:38;;;;;;;4.43;1.42;;;;;;;27.41;43.44;97622.94;5031514;28;20032;-61
2021/08/08 11:27:06;;;;;;;2.92;1.25;;;;;;;26.79;41.77;97617.63;5026882;28;20073;-60